LiveATC.Net - Listen to live air traffic control over the Internet!


ICAO: KTVL  IATA: TVL   Airport: Lake Tahoe Airport
City: South Lake Tahoe   State/Province: California
Country: United States   Continent: North America
KTVL METAR Weather: KTVL 172353Z AUTO 19006KT 10SM CLR 31/M02 A3016 RMK AO2 SLP151 T03061017 10328 20244 56007
KTVL Flight Activity (FlightAware)
KTVL Airport Info   (iFlightPlanner)
KTVL VFR Sectional Chart   (iFlightPlanner) 
KTVL IFR Low Chart   (iFlightPlanner) 

KTVL CTAF
Feed Status: UP   Listeners: 0
Listen in your browser - HTML5 player (in browser, HTML5)
Click here to listen with your own player (launches your MP3 player)
Archive Access: KTVL CTAF
FacilityFrequency
Lake Tahoe CTAF122.850

NOTICE

Unauthorized use prohibited. See LiveATC.net Terms of Service


Airport/ARTCC Code
Frequency Search
(e.g., 124.400, 128.75)
Site-wide search
 


Browse Feeds
Top 50 Feeds
HF Oceanic Feeds
Coverage Map
Bad Weather Areas

LiveATC FAQ
Offer LiveATC feed
Contact LiveATC.net
Press Inquiries

LiveATC on iPhone
LiveATC on Android

Windows Phone
Windows 8/10

LiveATC Mobile
(Mobile browser)

ATC Audio Archives
Interesting Recordings

LiveATC Forums


Home Page
About LiveATC.net
Make a Donation
Terms of Use
Privacy Policy

Canadian Air Freqs

AIRMETs/SIGMETs

FAA Airport Status
NAS Status
Arrival Demand


Server Software By:
Icecast.org
Liquidsoap